Time;durP1;ratioP1;P1;durP2;ratioP2;P2;SDS_P1;SDS_P2;PMS_P1;PMS_P2;Temp;Humidity;BMP_temperature;BMP_pressure;BME280_temperature;BME280_humidity;BME280_pressure;Samples;Min_cycle;Max_cycle;Signal;HPM_P1;HPM_P2
2023/12/03 00:00:40;;;;;;;17.17;9.20;;;-2.10;99.90;;;;;;5054572;28;20059;-39
2023/12/03 00:03:08;;;;;;;15.83;9.30;;;-1.40;99.90;;;;;;5054511;28;20052;-36
2023/12/03 00:05:36;;;;;;;21.73;9.40;;;-1.70;99.90;;;;;;5054502;28;20067;-34
2023/12/03 00:08:03;;;;;;;17.40;8.37;;;-1.60;99.90;;;;;;5053504;28;20492;-35
2023/12/03 00:10:29;;;;;;;17.57;8.40;;;-1.90;99.90;;;;;;5054442;28;20041;-34
2023/12/03 00:12:55;;;;;;;18.33;8.40;;;-2.30;99.90;;;;;;5054250;28;20052;-33
2023/12/03 00:15:22;;;;;;;16.27;8.67;;;-2.20;99.90;;;;;;5054302;28;20468;-34
2023/12/03 00:17:48;;;;;;;17.87;8.43;;;-2.10;99.90;;;;;;5054289;28;20049;-32
2023/12/03 00:20:14;;;;;;;18.57;8.97;;;-2.30;99.90;;;;;;5054132;28;20116;-32
2023/12/03 00:22:40;;;;;;;18.40;9.00;;;-2.00;99.90;;;;;;5054198;28;20076;-31
2023/12/03 00:25:06;;;;;;;22.63;10.70;;;-2.10;99.90;;;;;;5054117;28;20498;-31
2023/12/03 00:27:32;;;;;;;16.23;7.77;;;-2.40;99.90;;;;;;5054088;28;20056;-30
2023/12/03 00:29:58;;;;;;;20.07;9.70;;;-2.10;99.90;;;;;;5052417;28;20053;-30
2023/12/03 00:32:24;;;;;;;18.13;9.13;;;-2.20;99.90;;;;;;5053558;28;20124;-29
2023/12/03 00:34:49;;;;;;;14.13;7.50;;;-2.30;99.90;;;;;;5054031;28;20587;-29
2023/12/03 00:37:15;;;;;;;14.47;8.03;;;-2.20;99.90;;;;;;5036158;28;20090;-29
2023/12/03 00:39:41;;;;;;;17.43;8.40;;;-1.80;99.90;;;;;;5054442;28;20084;-29
2023/12/03 00:42:07;;;;;;;16.70;9.00;;;-2.10;99.90;;;;;;5053861;28;20049;-30
2023/12/03 00:44:32;;;;;;;14.67;8.33;;;-1.90;99.90;;;;;;5053855;28;20206;-29
2023/12/03 00:46:58;;;;;;;17.87;9.27;;;-1.40;99.90;;;;;;5053830;28;20044;-29
2023/12/03 00:49:24;;;;;;;15.60;7.83;;;-1.40;99.90;;;;;;5053459;28;20430;-29
2023/12/03 00:51:50;;;;;;;16.00;7.47;;;-1.40;99.90;;;;;;5054556;28;20053;-28
2023/12/03 00:54:17;;;;;;;16.27;8.87;;;-1.60;99.90;;;;;;5053909;28;20391;-29
2023/12/03 00:56:42;;;;;;;12.63;7.67;;;-1.30;99.90;;;;;;5053683;28;20055;-28
2023/12/03 00:59:08;;;;;;;16.77;8.83;;;-1.50;99.90;;;;;;5053624;28;20131;-28
2023/12/03 01:01:34;;;;;;;16.63;8.53;;;-1.50;99.90;;;;;;5053579;28;20087;-27
2023/12/03 01:04:00;;;;;;;16.10;8.50;;;-1.50;99.90;;;;;;5053250;28;20483;-27
2023/12/03 01:06:26;;;;;;;14.40;7.70;;;-1.80;99.90;;;;;;5053595;28;20048;-27
2023/12/03 01:08:52;;;;;;;19.33;8.93;;;-2.00;99.90;;;;;;5053190;28;20049;-27
2023/12/03 01:11:18;;;;;;;12.27;6.87;;;-2.20;99.90;;;;;;5053494;28;20049;-28
2023/12/03 01:13:44;;;;;;;12.13;7.07;;;-2.40;99.90;;;;;;5053436;28;20603;-27
2023/12/03 01:16:16;;;;;;;14.13;7.37;;;-2.40;99.90;;;;;;5054284;28;20048;-26
2023/12/03 01:18:42;;;;;;;13.30;6.43;;;-2.40;99.90;;;;;;5054056;28;20048;-26
2023/12/03 01:21:08;;;;;;;15.17;6.83;;;-2.30;99.90;;;;;;5053025;28;20637;-26
2023/12/03 01:23:34;;;;;;;10.97;6.03;;;-2.60;99.90;;;;;;5053448;28;20037;-26
2023/12/03 01:26:00;;;;;;;15.70;6.67;;;-2.40;99.90;;;;;;5053975;28;20117;-25
2023/12/03 01:28:25;;;;;;;11.90;6.67;;;-2.60;99.90;;;;;;5053447;28;20527;-25
2023/12/03 01:30:52;;;;;;;13.53;7.40;;;-2.60;99.90;;;;;;5053370;28;20128;-25
2023/12/03 01:33:18;;;;;;;13.60;7.17;;;-2.50;99.90;;;;;;5053249;28;20106;-25
2023/12/03 01:35:43;;;;;;;18.47;7.63;;;-2.60;99.90;;;;;;5052299;28;20048;-25
2023/12/03 01:38:09;;;;;;;19.37;8.80;;;-2.70;99.90;;;;;;5052160;28;20049;-24
2023/12/03 01:40:35;;;;;;;22.07;11.27;;;-2.60;99.90;;;;;;5052995;28;20526;-24
2023/12/03 01:43:02;;;;;;;21.23;9.97;;;-2.90;99.90;;;;;;5053269;28;20080;-24
2023/12/03 01:45:28;;;;;;;20.67;9.80;;;-2.70;99.90;;;;;;5057032;28;20045;-23
2023/12/03 01:47:54;;;;;;;16.17;9.20;;;-2.90;99.90;;;;;;5056502;28;20497;-23
2023/12/03 01:50:21;;;;;;;18.70;9.67;;;-2.70;99.90;;;;;;5057057;28;20049;-23
2023/12/03 01:52:47;;;;;;;19.10;9.97;;;-3.00;99.90;;;;;;5055959;28;20470;-23
2023/12/03 01:55:16;;;;;;;18.40;9.10;;;-2.80;99.90;;;;;;5057276;28;20045;-23
2023/12/03 01:57:42;;;;;;;17.40;9.27;;;-3.00;99.90;;;;;;5055949;28;20041;-22
2023/12/03 02:00:09;;;;;;;18.07;9.67;;;-3.00;99.90;;;;;;5056856;28;20055;-23
2023/12/03 02:02:35;;;;;;;21.70;10.20;;;-2.90;99.90;;;;;;5056855;28;20052;-22
2023/12/03 02:05:02;;;;;;;21.70;12.23;;;-2.80;99.90;;;;;;5056816;28;20053;-22
2023/12/03 02:07:28;;;;;;;28.30;12.43;;;-2.80;99.90;;;;;;5056785;28;20096;-22
2023/12/03 02:09:55;;;;;;;31.23;13.07;;;-2.90;99.90;;;;;;5056155;28;20049;-22
2023/12/03 02:12:22;;;;;;;21.70;11.13;;;-2.70;99.90;;;;;;5056546;28;20049;-22
2023/12/03 02:14:47;;;;;;;29.57;13.43;;;-2.90;99.90;;;;;;5056641;28;20048;-22
2023/12/03 02:17:13;;;;;;;36.23;14.30;;;-2.70;99.90;;;;;;5056591;28;20045;-22
2023/12/03 02:19:39;;;;;;;30.90;13.80;;;-2.90;99.90;;;;;;5038874;28;20529;-22
2023/12/03 02:22:04;;;;;;;25.90;12.57;;;-2.70;99.90;;;;;;5056206;28;20175;-22
2023/12/03 02:24:30;;;;;;;26.60;14.00;;;-2.80;99.90;;;;;;5056408;28;20048;-22
2023/12/03 02:26:56;;;;;;;25.33;11.77;;;-2.90;99.90;;;;;;5055279;28;20049;-22
2023/12/03 02:29:22;;;;;;;25.87;12.47;;;-3.00;99.90;;;;;;5054726;28;20052;-21
2023/12/03 02:31:47;;;;;;;24.87;11.37;;;-3.20;99.90;;;;;;5057102;28;20127;-21
2023/12/03 02:34:13;;;;;;;24.43;11.23;;;-2.80;99.90;;;;;;5056179;28;20080;-21
2023/12/03 02:36:39;;;;;;;26.47;11.33;;;-2.90;99.90;;;;;;5056200;28;20056;-21
2023/12/03 02:39:05;;;;;;;20.40;10.97;;;-3.00;99.90;;;;;;5056160;28;20044;-21
2023/12/03 02:41:32;;;;;;;20.77;10.13;;;-3.10;99.90;;;;;;5056393;28;20049;-21
2023/12/03 02:43:58;;;;;;;17.80;9.13;;;-3.00;99.90;;;;;;5056035;28;20048;-21
2023/12/03 02:46:24;;;;;;;16.10;8.90;;;-3.10;99.90;;;;;;5055069;28;20068;-20
2023/12/03 02:48:50;;;;;;;18.17;9.63;;;-3.20;99.90;;;;;;5055981;28;20132;-21
2023/12/03 02:51:16;;;;;;;17.47;9.60;;;-3.10;99.90;;;;;;5055921;28;20048;-21
2023/12/03 02:53:44;;;;;;;15.67;9.10;;;-3.20;99.90;;;;;;5055764;28;20088;-20
2023/12/03 02:56:12;;;;;;;28.33;8.53;;;-3.20;99.90;;;;;;5055509;28;20101;-20
2023/12/03 02:58:38;;;;;;;78.67;11.53;;;-3.40;99.90;;;;;;5055720;28;20092;-20
2023/12/03 03:01:08;;;;;;;38.43;9.87;;;-3.30;99.90;;;;;;5055726;28;20081;-20
2023/12/03 03:03:34;;;;;;;25.20;9.57;;;-3.20;99.90;;;;;;5055698;28;20118;-21
2023/12/03 03:05:59;;;;;;;111.07;11.60;;;-3.10;99.90;;;;;;5055626;28;20132;-20
2023/12/03 03:08:25;;;;;;;91.90;11.77;;;-3.20;99.90;;;;;;5055578;28;20049;-20
2023/12/03 03:10:51;;;;;;;76.40;11.87;;;-3.10;99.90;;;;;;5055597;28;20084;-20
2023/12/03 03:13:17;;;;;;;38.47;10.27;;;-3.10;99.90;;;;;;5055395;28;20474;-20
2023/12/03 03:15:42;;;;;;;64.47;10.80;;;-2.90;99.90;;;;;;5055494;28;20080;-20
2023/12/03 03:18:08;;;;;;;65.73;12.57;;;-3.00;99.90;;;;;;5055484;28;20154;-20
2023/12/03 03:20:34;;;;;;;85.20;12.63;;;-2.90;99.90;;;;;;5054675;28;20055;-20
2023/12/03 03:23:00;;;;;;;132.57;15.03;;;-2.90;99.90;;;;;;5054933;28;20434;-19
2023/12/03 03:25:26;;;;;;;168.57;16.03;;;-2.80;99.90;;;;;;5055838;28;20087;-19
2023/12/03 03:27:51;;;;;;;83.57;12.47;;;-2.70;99.90;;;;;;5054076;28;20041;-20
2023/12/03 03:30:17;;;;;;;114.17;15.07;;;-2.80;99.90;;;;;;5055817;28;20175;-19
2023/12/03 03:32:43;;;;;;;93.27;13.33;;;-2.90;99.90;;;;;;5054467;28;20041;-19
2023/12/03 03:35:09;;;;;;;49.97;12.80;;;-2.70;99.90;;;;;;5055384;28;20052;-19
2023/12/03 03:37:35;;;;;;;49.50;13.57;;;-2.90;99.90;;;;;;5055076;28;20616;-19
2023/12/03 03:40:01;;;;;;;209.80;21.30;;;-2.80;99.90;;;;;;5055035;28;20128;-19
2023/12/03 03:42:26;;;;;;;70.57;15.77;;;-3.00;99.90;;;;;;5054933;28;20067;-19
2023/12/03 03:44:52;;;;;;;27.03;13.20;;;-2.80;99.90;;;;;;5055228;28;20040;-19
2023/12/03 03:47:18;;;;;;;24.37;12.50;;;-2.80;99.90;;;;;;5054931;28;20441;-19
2023/12/03 03:49:44;;;;;;;32.77;13.63;;;-2.90;99.90;;;;;;5054838;28;20048;-19
2023/12/03 03:52:09;;;;;;;93.97;15.77;;;-2.70;99.90;;;;;;5054770;28;20045;-19
2023/12/03 03:54:41;;;;;;;51.77;16.13;;;-2.80;99.90;;;;;;5054656;28;20049;-19
2023/12/03 03:57:08;;;;;;;47.97;16.23;;;-2.60;99.90;;;;;;5054379;28;20049;-19
2023/12/03 03:59:34;;;;;;;42.33;15.23;;;-2.90;99.90;;;;;;5053960;28;20045;-19
2023/12/03 04:01:59;;;;;;;139.13;19.27;;;-2.80;99.90;;;;;;5054586;28;20093;-19
2023/12/03 04:04:25;;;;;;;185.00;21.63;;;-2.70;99.90;;;;;;5054563;28;20044;-19
2023/12/03 04:06:51;;;;;;;221.70;20.40;;;-2.70;99.90;;;;;;5036211;28;20395;-19
2023/12/03 04:09:17;;;;;;;214.40;19.90;;;-2.90;99.90;;;;;;5054501;28;20056;-19
2023/12/03 04:11:44;;;;;;;129.77;17.70;;;-2.90;99.90;;;;;;5054414;28;20510;-19
2023/12/03 04:14:13;;;;;;;166.33;20.43;;;-3.00;99.90;;;;;;5054850;28;20123;-19
2023/12/03 04:16:39;;;;;;;121.47;18.43;;;-2.80;99.90;;;;;;5054357;28;20049;-19
2023/12/03 04:19:06;;;;;;;322.00;27.03;;;-2.80;99.90;;;;;;5054291;28;20057;-19
2023/12/03 04:21:32;;;;;;;203.37;20.83;;;-2.90;99.90;;;;;;5054243;28;20043;-19
2023/12/03 04:23:58;;;;;;;231.23;21.70;;;-2.90;99.90;;;;;;5054688;28;20095;-19
2023/12/03 04:26:25;;;;;;;258.57;23.80;;;-2.80;99.90;;;;;;5053985;28;20049;-19
2023/12/03 04:28:52;;;;;;;216.23;21.57;;;-3.10;99.90;;;;;;5054045;28;20380;-19
2023/12/03 04:31:22;;;;;;;193.60;18.40;;;-2.90;99.90;;;;;;5054866;28;20057;-19
2023/12/03 04:33:52;;;;;;;182.83;18.53;;;-3.00;99.90;;;;;;5052860;28;20115;-19
2023/12/03 04:36:21;;;;;;;109.93;15.37;;;-2.90;99.90;;;;;;5055124;28;20098;-19
2023/12/03 04:38:47;;;;;;;153.07;16.70;;;-3.10;99.90;;;;;;5053912;28;20049;-18
2023/12/03 04:41:13;;;;;;;90.33;15.60;;;-3.10;99.90;;;;;;5053763;28;20143;-19
2023/12/03 04:43:39;;;;;;;92.03;16.97;;;-2.80;99.90;;;;;;5053856;28;20539;-19
2023/12/03 04:46:05;;;;;;;149.23;17.87;;;-3.10;99.90;;;;;;5053830;28;20052;-18
2023/12/03 04:48:34;;;;;;;106.60;16.90;;;-3.10;99.90;;;;;;5053747;28;20056;-19
2023/12/03 04:51:00;;;;;;;87.90;17.33;;;-2.90;99.90;;;;;;5053847;28;20059;-19
2023/12/03 04:53:26;;;;;;;113.13;19.30;;;-2.90;99.90;;;;;;5053652;28;20041;-18
2023/12/03 04:55:52;;;;;;;129.33;17.57;;;-2.90;99.90;;;;;;5053734;28;20579;-18
2023/12/03 04:58:18;;;;;;;164.37;22.30;;;-3.10;99.90;;;;;;5052495;28;20150;-19
2023/12/03 05:00:43;;;;;;;152.83;21.50;;;-3.10;99.90;;;;;;5036126;28;20127;-19
2023/12/03 05:03:09;;;;;;;182.20;22.17;;;-2.80;99.90;;;;;;5053893;28;20087;-19
2023/12/03 05:05:35;;;;;;;112.90;17.97;;;-3.00;99.90;;;;;;5052471;28;20219;-19
2023/12/03 05:08:00;;;;;;;108.57;22.83;;;-3.20;99.90;;;;;;5053915;28;20045;-18
2023/12/03 05:10:26;;;;;;;126.87;20.73;;;-3.20;99.90;;;;;;5052622;28;20041;-19
2023/12/03 05:12:52;;;;;;;70.80;18.53;;;-3.20;99.90;;;;;;5053707;28;20045;-19
2023/12/03 05:15:18;;;;;;;137.77;23.27;;;-3.10;99.90;;;;;;5052384;28;20040;-18
2023/12/03 05:17:43;;;;;;;165.77;21.67;;;-3.00;99.90;;;;;;5054230;28;20483;-18
2023/12/03 05:20:10;;;;;;;174.50;21.53;;;-3.00;99.90;;;;;;5057579;28;20052;-19
2023/12/03 05:22:35;;;;;;;212.50;23.30;;;-2.90;99.90;;;;;;5057608;28;20510;-19
2023/12/03 05:25:01;;;;;;;171.03;23.33;;;-2.70;99.90;;;;;;5057549;28;20049;-19
2023/12/03 05:27:27;;;;;;;79.40;20.27;;;-2.70;99.90;;;;;;5057519;28;20102;-18
2023/12/03 05:29:53;;;;;;;65.13;19.43;;;-2.80;99.90;;;;;;5057487;28;20072;-19
2023/12/03 05:32:18;;;;;;;45.30;19.20;;;-2.60;99.90;;;;;;5057330;28;20213;-19
2023/12/03 05:34:45;;;;;;;46.63;19.77;;;-2.90;99.90;;;;;;5057383;28;20095;-18
2023/12/03 05:37:11;;;;;;;49.50;20.87;;;-2.70;99.90;;;;;;5056411;28;20444;-18
2023/12/03 05:39:41;;;;;;;53.03;19.90;;;-2.80;99.90;;;;;;5056710;28;20049;-18
2023/12/03 05:42:07;;;;;;;48.40;20.67;;;-2.70;99.90;;;;;;5057299;28;20080;-19
2023/12/03 05:44:32;;;;;;;54.33;21.50;;;-2.60;99.90;;;;;;5057736;28;20391;-18
2023/12/03 05:46:58;;;;;;;81.13;24.87;;;-2.40;99.90;;;;;;5056871;28;20056;-19
2023/12/03 05:49:24;;;;;;;88.37;24.07;;;-2.30;99.90;;;;;;5057129;28;20550;-19
2023/12/03 05:51:50;;;;;;;154.47;29.40;;;-2.40;99.90;;;;;;5057120;28;20183;-19
2023/12/03 05:54:16;;;;;;;156.93;29.80;;;-2.30;99.90;;;;;;5055811;28;20033;-19
2023/12/03 05:56:45;;;;;;;154.13;29.90;;;-2.10;99.90;;;;;;5055827;28;20044;-19
2023/12/03 05:59:11;;;;;;;168.60;31.30;;;-2.10;99.90;;;;;;5056934;28;20052;-19
2023/12/03 06:01:38;;;;;;;275.83;35.73;;;-2.00;99.90;;;;;;5056867;28;20049;-19
2023/12/03 06:04:07;;;;;;;261.63;36.27;;;-1.60;99.90;;;;;;5056809;28;20037;-19
2023/12/03 06:06:36;;;;;;;301.23;37.43;;;-1.90;99.90;;;;;;5056463;28;20376;-18
2023/12/03 06:09:06;;;;;;;408.60;45.60;;;-1.80;99.90;;;;;;5056339;28;20433;-19
2023/12/03 06:11:35;;;;;;;501.63;47.83;;;-1.30;99.90;;;;;;5056718;28;20372;-19
2023/12/03 06:14:03;;;;;;;548.60;50.47;;;-1.70;99.90;;;;;;5056600;28;20045;-19
2023/12/03 06:16:29;;;;;;;693.63;61.00;;;-1.20;99.90;;;;;;5056466;28;20045;-19
2023/12/03 06:18:56;;;;;;;441.10;50.33;;;-1.40;99.90;;;;;;5056540;28;20055;-19
2023/12/03 06:21:22;;;;;;;512.73;51.53;;;-1.40;99.90;;;;;;5055407;28;20106;-19
2023/12/03 06:23:48;;;;;;;571.17;55.13;;;-1.20;99.90;;;;;;5057306;28;20051;-19
2023/12/03 06:26:14;;;;;;;571.80;57.43;;;-1.00;99.90;;;;;;5056188;28;20411;-19
2023/12/03 06:28:39;;;;;;;457.17;49.47;;;-1.10;99.90;;;;;;5056593;28;20060;-19
2023/12/03 06:31:06;;;;;;;606.47;59.20;;;-0.60;99.90;;;;;;5055615;28;20049;-19
2023/12/03 06:33:32;;;;;;;530.33;57.43;;;-1.20;99.90;;;;;;5056226;28;20067;-19
2023/12/03 06:35:58;;;;;;;627.43;64.73;;;-1.10;99.90;;;;;;5056497;28;20044;-19
2023/12/03 06:38:24;;;;;;;489.33;59.67;;;-0.80;99.90;;;;;;5056174;28;20525;-19
2023/12/03 06:40:50;;;;;;;584.40;63.43;;;-0.60;99.90;;;;;;5056109;28;20051;-19
2023/12/03 06:43:15;;;;;;;746.23;74.07;;;-0.40;99.90;;;;;;5056122;28;20040;-19
2023/12/03 06:45:41;;;;;;;509.43;58.10;;;-0.60;99.90;;;;;;5056645;28;20383;-19
2023/12/03 06:48:07;;;;;;;562.50;66.07;;;-0.90;99.90;;;;;;5056527;28;20052;-19
2023/12/03 06:50:33;;;;;;;541.30;60.27;;;-0.40;99.90;;;;;;5055000;28;20142;-19
2023/12/03 06:53:00;;;;;;;713.80;65.90;;;-0.80;99.90;;;;;;5054810;28;20479;-19
2023/12/03 06:55:26;;;;;;;607.90;61.67;;;-0.80;99.90;;;;;;5055824;28;20056;-20
2023/12/03 06:57:52;;;;;;;529.03;56.83;;;-0.70;99.90;;;;;;5055908;28;20052;-19
2023/12/03 07:00:19;;;;;;;588.00;55.13;;;-0.80;99.90;;;;;;5055773;28;20049;-19
2023/12/03 07:02:45;;;;;;;563.83;57.23;;;0.10;99.90;;;;;;5055459;28;20514;-20
2023/12/03 07:05:10;;;;;;;511.20;55.33;;;-0.90;99.90;;;;;;5055706;28;20041;-20
2023/12/03 07:07:37;;;;;;;590.87;58.97;;;-0.80;99.90;;;;;;5055646;28;20057;-20
2023/12/03 07:10:03;;;;;;;575.13;59.60;;;0.40;99.90;;;;;;5055665;28;20125;-20
2023/12/03 07:12:30;;;;;;;576.50;59.13;;;0.40;99.90;;;;;;5054498;28;20102;-20
2023/12/03 07:14:56;;;;;;;613.17;60.93;;;-0.90;99.90;;;;;;5055522;28;20051;-20
2023/12/03 07:17:22;;;;;;;638.47;61.57;;;-0.90;99.90;;;;;;5056048;28;20123;-20
2023/12/03 07:19:48;;;;;;;669.50;66.13;;;-0.80;99.90;;;;;;5021258;28;20040;-20
2023/12/03 07:22:14;;;;;;;702.23;67.03;;;-0.60;99.90;;;;;;5055369;28;20175;-21
2023/12/03 07:24:41;;;;;;;779.43;71.63;;;0.60;99.90;;;;;;5037865;28;20048;-20
2023/12/03 07:27:07;;;;;;;752.97;68.70;;;-0.60;99.90;;;;;;5054634;28;20095;-21
2023/12/03 07:29:34;;;;;;;598.07;60.07;;;0.70;99.90;;;;;;5055467;28;20082;-21
2023/12/03 07:32:00;;;;;;;670.20;65.60;;;0.70;99.90;;;;;;5054203;28;20487;-22
2023/12/03 07:34:26;;;;;;;692.50;68.50;;;0.40;99.90;;;;;;5053888;28;20048;-22
2023/12/03 07:36:52;;;;;;;653.90;67.00;;;-0.90;99.90;;;;;;5054445;28;20049;-22
2023/12/03 07:39:19;;;;;;;636.17;61.17;;;0.70;99.90;;;;;;5054056;28;20056;-22
2023/12/03 07:41:52;;;;;;;626.20;61.33;;;-0.70;99.90;;;;;;5052878;28;20048;-22
2023/12/03 07:44:18;;;;;;;469.63;50.90;;;0.50;99.90;;;;;;5055816;28;20088;-23
2023/12/03 07:46:44;;;;;;;482.47;53.87;;;0.10;99.90;;;;;;5055168;28;20546;-23
2023/12/03 07:49:10;;;;;;;519.03;57.83;;;-0.80;99.90;;;;;;5054865;28;20127;-23
2023/12/03 07:51:36;;;;;;;359.73;41.67;;;0.30;99.90;;;;;;5054784;28;20040;-23
2023/12/03 07:54:02;;;;;;;321.70;40.70;;;0.30;99.90;;;;;;5054722;28;20098;-23
2023/12/03 07:56:38;;;;;;;417.03;47.17;;;0.50;99.90;;;;;;5054726;28;20084;-23
2023/12/03 07:59:03;;;;;;;210.60;29.73;;;0.10;99.90;;;;;;5055478;28;20045;-24
2023/12/03 08:01:30;;;;;;;236.20;29.97;;;0.60;99.90;;;;;;5036717;28;20495;-25
2023/12/03 08:03:56;;;;;;;304.87;35.43;;;0.10;99.90;;;;;;5054604;28;20471;-26
2023/12/03 08:06:22;;;;;;;232.57;28.33;;;1.20;99.90;;;;;;5054216;28;20396;-27
2023/12/03 08:08:48;;;;;;;289.73;32.93;;;0.70;99.90;;;;;;5054506;28;20049;-27
2023/12/03 08:11:14;;;;;;;283.20;33.10;;;-0.20;99.90;;;;;;5054739;28;20406;-27
2023/12/03 08:13:40;;;;;;;199.97;25.83;;;1.00;99.90;;;;;;5054363;28;20123;-28
2023/12/03 08:16:06;;;;;;;159.67;24.60;;;0.90;99.90;;;;;;5054325;28;20088;-32
2023/12/03 08:18:32;;;;;;;153.67;22.50;;;0.90;99.90;;;;;;5053150;28;20053;-28
2023/12/03 08:20:59;;;;;;;227.60;25.40;;;0.90;99.90;;;;;;5054188;28;20091;-29
2023/12/03 08:23:26;;;;;;;268.00;31.57;;;0.10;99.90;;;;;;5054210;28;20041;-30
2023/12/03 08:25:52;;;;;;;416.70;37.23;;;-0.30;99.90;;;;;;5052977;28;20429;-29
2023/12/03 08:28:18;;;;;;;302.33;31.40;;;-0.80;99.90;;;;;;5053972;28;20427;-30
2023/12/03 08:30:44;;;;;;;270.00;28.73;;;-0.80;99.90;;;;;;5054091;28;20053;-30
2023/12/03 08:33:10;;;;;;;218.33;29.00;;;-0.40;99.90;;;;;;5053980;28;20179;-30
2023/12/03 08:35:35;;;;;;;202.87;24.50;;;-0.70;99.90;;;;;;5053726;28;20049;-31
2023/12/03 08:38:01;;;;;;;242.50;28.07;;;0.90;99.90;;;;;;5053947;28;20055;-31
2023/12/03 08:40:27;;;;;;;245.57;29.00;;;0.90;99.90;;;;;;5053890;28;20395;-31
2023/12/03 08:42:53;;;;;;;256.50;29.47;;;-0.70;99.90;;;;;;5052688;28;20098;-32
2023/12/03 08:45:18;;;;;;;157.07;22.63;;;0.50;99.90;;;;;;5054435;28;20048;-32
2023/12/03 08:47:44;;;;;;;201.10;26.57;;;0.70;99.90;;;;;;5053802;28;20047;-32
2023/12/03 08:50:10;;;;;;;157.27;23.87;;;0.80;99.90;;;;;;5053830;28;20052;-32
2023/12/03 08:52:36;;;;;;;214.10;32.70;;;-0.50;99.90;;;;;;5053374;28;20095;-32
2023/12/03 08:55:03;;;;;;;159.70;27.30;;;-0.50;99.90;;;;;;5035923;28;20041;-33
2023/12/03 08:57:29;;;;;;;112.18;20.85;;;-0.70;99.90;;;;;;5053058;28;20044;-32
2023/12/03 08:59:55;;;;;;;186.33;29.57;;;-0.70;99.90;;;;;;5052723;28;20059;-33
2023/12/03 09:02:21;;;;;;;139.05;23.58;;;1.20;99.90;;;;;;5053026;28;20094;-32
2023/12/03 09:04:47;;;;;;;180.70;30.10;;;-0.40;99.90;;;;;;5052528;28;20051;-32
2023/12/03 09:07:13;;;;;;;205.65;32.80;;;1.20;99.90;;;;;;5053563;28;20049;-32
2023/12/03 09:09:39;;;;;;;180.87;29.40;;;1.20;99.90;;;;;;5052075;28;20049;-33
2023/12/03 09:12:06;;;;;;;212.80;34.33;;;-0.60;99.90;;;;;;5053574;28;20055;-32
2023/12/03 09:14:31;;;;;;;183.10;30.00;;;-0.40;99.90;;;;;;5052566;28;20041;-32
2023/12/03 09:16:58;;;;;;;116.13;24.27;;;-0.60;99.90;;;;;;5053483;28;20498;-32
2023/12/03 09:19:24;;;;;;;200.75;34.67;;;0.80;99.90;;;;;;5052313;28;20049;-32
2023/12/03 09:21:50;;;;;;;149.60;29.20;;;1.40;99.90;;;;;;5053407;28;20094;-32
2023/12/03 09:24:16;;;;;;;167.43;30.33;;;-0.40;99.90;;;;;;5052212;28;20041;-32
2023/12/03 09:26:44;;;;;;;200.10;36.50;;;1.30;99.90;;;;;;5053112;28;20048;-32
2023/12/03 09:29:11;;;;;;;157.10;33.35;;;-0.30;99.90;;;;;;5053216;28;20191;-32
2023/12/03 09:31:41;;;;;;;171.43;34.42;;;-0.30;99.90;;;;;;5053328;28;20079;-32
2023/12/03 09:34:08;;;;;;;182.98;36.25;;;-0.30;99.90;;;;;;5051974;28;20045;-31
2023/12/03 09:36:34;;;;;;;179.10;35.92;;;0.20;99.90;;;;;;5053111;28;20041;-31
2023/12/03 09:39:01;;;;;;;177.27;36.33;;;1.40;99.90;;;;;;5052142;28;20049;-31
2023/12/03 09:41:29;;;;;;;173.80;39.35;;;1.80;99.90;;;;;;5053451;28;20048;-31
2023/12/03 09:43:59;;;;;;;141.88;34.53;;;1.10;99.90;;;;;;5053153;28;20049;-30
2023/12/03 09:46:31;;;;;;;160.98;37.63;;;1.70;99.90;;;;;;5053103;28;20497;-30
2023/12/03 09:49:00;;;;;;;158.70;39.72;;;0.10;99.90;;;;;;5052698;28;20041;-31
2023/12/03 09:51:27;;;;;;;138.25;36.30;;;0.50;99.90;;;;;;5052083;28;20565;-29
2023/12/03 09:53:58;;;;;;;160.38;42.05;;;0.10;99.90;;;;;;5053003;28;20572;-30
2023/12/03 09:56:25;;;;;;;149.37;40.03;;;1.80;99.90;;;;;;5053357;28;20045;-29
2023/12/03 09:58:51;;;;;;;151.13;39.70;;;1.10;99.90;;;;;;5052377;28;20056;-29
2023/12/03 10:01:19;;;;;;;146.75;39.97;;;1.80;99.90;;;;;;5052986;28;20395;-30
2023/12/03 10:03:44;;;;;;;130.60;40.17;;;0.10;99.90;;;;;;5053034;28;20045;-30
2023/12/03 10:06:11;;;;;;;115.68;33.97;;;0.60;99.90;;;;;;5038097;28;20049;-29
2023/12/03 10:08:41;;;;;;;121.70;35.10;;;1.50;99.90;;;;;;5039360;28;20088;-30
2023/12/03 10:11:10;;;;;;;100.15;33.92;;;1.40;99.90;;;;;;5056386;28;20502;-29
2023/12/03 10:13:36;;;;;;;97.93;32.60;;;1.50;99.90;;;;;;5055239;28;20041;-29
2023/12/03 10:16:03;;;;;;;116.25;36.28;;;0.70;99.90;;;;;;5055490;28;20055;-29
2023/12/03 10:18:29;;;;;;;120.63;40.17;;;1.10;99.90;;;;;;5056333;28;20056;-29
2023/12/03 10:21:08;;;;;;;110.97;41.70;;;1.50;99.90;;;;;;5056973;28;20049;-29
2023/12/03 10:23:38;;;;;;;106.43;38.10;;;0.90;99.90;;;;;;5056526;28;20076;-28
2023/12/03 10:26:11;;;;;;;109.78;38.40;;;0.40;99.90;;;;;;5057151;28;20151;-29
2023/12/03 10:28:38;;;;;;;115.53;41.40;;;1.50;99.90;;;;;;5056027;28;20052;-28
2023/12/03 10:31:05;;;;;;;105.05;39.58;;;1.50;99.90;;;;;;5056341;28;20110;-28
2023/12/03 10:33:32;;;;;;;78.65;34.53;;;1.60;99.90;;;;;;5055130;28;20399;-28
2023/12/03 10:36:02;;;;;;;95.45;39.00;;;1.10;99.90;;;;;;5055801;28;20369;-28
2023/12/03 10:38:38;;;;;;;94.22;37.95;;;1.60;99.90;;;;;;5039731;28;20049;-28
2023/12/03 10:41:09;;;;;;;91.88;34.92;;;0.90;99.90;;;;;;5055055;28;20084;-28
2023/12/03 10:43:37;;;;;;;89.13;40.30;;;1.00;99.90;;;;;;5054996;28;20045;-27
2023/12/03 10:46:10;;;;;;;92.25;38.10;;;0.70;99.90;;;;;;5055752;28;20437;-27
2023/12/03 10:48:37;;;;;;;102.32;41.22;;;0.70;99.90;;;;;;5039214;28;20045;-28
2023/12/03 10:51:05;;;;;;;89.93;37.25;;;1.40;99.90;;;;;;5054836;28;20053;-28
2023/12/03 10:53:34;;;;;;;92.60;39.08;;;1.20;99.90;;;;;;5054697;28;20116;-28
2023/12/03 10:56:03;;;;;;;80.80;36.28;;;0.70;99.90;;;;;;5055849;28;20080;-27
2023/12/03 10:58:37;;;;;;;74.25;34.70;;;1.60;99.90;;;;;;5055478;28;20483;-27
2023/12/03 11:01:22;;;;;;;85.70;37.92;;;1.10;99.90;;;;;;5056473;28;20053;-27
2023/12/03 11:03:55;;;;;;;79.47;36.10;;;1.30;99.90;;;;;;5056288;28;20453;-27
2023/12/03 11:06:25;;;;;;;87.32;39.80;;;2.00;99.90;;;;;;5056503;28;20056;-27
2023/12/03 11:08:53;;;;;;;75.32;36.72;;;2.00;99.90;;;;;;5054485;28;20053;-27
2023/12/03 11:11:22;;;;;;;66.07;32.97;;;1.30;99.90;;;;;;5054997;28;20052;-27
2023/12/03 11:13:52;;;;;;;66.60;31.92;;;1.30;99.90;;;;;;5054099;28;20045;-27
2023/12/03 11:16:19;;;;;;;59.63;30.63;;;2.30;99.90;;;;;;5054118;28;20045;-27
2023/12/03 11:19:10;;;;;;;63.63;33.03;;;1.40;99.90;;;;;;5037965;28;20487;-27
2023/12/03 11:22:10;;;;;;;56.95;30.20;;;1.80;99.90;;;;;;5037876;28;20453;-27
2023/12/03 11:24:57;;;;;;;59.95;30.50;;;1.40;99.90;;;;;;5055704;28;20045;-26
2023/12/03 11:27:27;;;;;;;54.90;28.52;;;1.50;99.90;;;;;;5054113;28;20045;-27
2023/12/03 11:29:56;;;;;;;62.25;33.60;;;1.60;99.90;;;;;;5055678;28;20183;-27
2023/12/03 11:32:25;;;;;;;52.63;29.90;;;1.60;99.90;;;;;;5054095;28;20098;-26
2023/12/03 11:34:56;;;;;;;51.28;26.35;;;1.50;99.90;;;;;;5053886;28;20048;-27
2023/12/03 11:37:24;;;;;;;54.80;27.38;;;1.50;99.90;;;;;;5055217;28;20128;-26
2023/12/03 11:39:50;;;;;;;48.80;26.13;;;1.20;99.90;;;;;;5053863;28;20103;-26
2023/12/03 11:42:17;;;;;;;48.30;26.10;;;1.20;99.90;;;;;;5055085;28;20056;-28
2023/12/03 11:44:43;;;;;;;57.63;30.85;;;1.40;99.90;;;;;;5054836;28;20072;-27
2023/12/03 11:47:10;;;;;;;55.05;27.70;;;1.20;99.90;;;;;;5053778;28;20390;-27
2023/12/03 11:49:38;;;;;;;51.65;28.45;;;1.20;99.90;;;;;;5054625;28;20475;-26
2023/12/03 11:52:04;;;;;;;44.28;25.05;;;1.20;99.90;;;;;;5037238;28;20124;-27
2023/12/03 11:55:04;;;;;;;53.45;29.15;;;1.10;99.90;;;;;;5055522;28;20098;-29
2023/12/03 11:57:32;;;;;;;54.13;28.65;;;1.00;99.90;;;;;;5055096;28;20106;-27
2023/12/03 12:00:01;;;;;;;53.47;28.33;;;1.00;99.90;;;;;;5054243;28;20510;-26
2023/12/03 12:02:27;;;;;;;52.53;27.60;;;1.40;99.90;;;;;;5053539;28;20394;-27
2023/12/03 12:04:52;;;;;;;56.97;31.60;;;0.90;99.90;;;;;;5054257;28;20123;-27
2023/12/03 12:07:18;;;;;;;58.13;29.48;;;0.90;99.90;;;;;;5036939;28;20091;-27
2023/12/03 12:09:50;;;;;;;59.97;29.83;;;1.10;99.90;;;;;;5036512;28;20041;-27
2023/12/03 12:12:16;;;;;;;57.45;29.73;;;1.00;99.90;;;;;;5053476;28;20053;-27
2023/12/03 12:14:44;;;;;;;62.58;34.40;;;1.00;99.90;;;;;;5054873;28;20132;-27
2023/12/03 12:17:10;;;;;;;60.85;31.15;;;1.10;99.90;;;;;;5054434;28;20079;-27
2023/12/03 12:19:44;;;;;;;57.90;30.05;;;1.20;99.90;;;;;;5053040;28;20115;-25
2023/12/03 12:22:09;;;;;;;65.13;34.95;;;1.60;99.90;;;;;;5053065;28;20106;-27
2023/12/03 12:24:35;;;;;;;48.22;27.27;;;1.10;99.90;;;;;;5054239;28;20048;-27
2023/12/03 12:27:01;;;;;;;63.47;34.50;;;1.20;99.90;;;;;;5053008;28;20052;-27